Time;durP1;ratioP1;P1;durP2;ratioP2;P2;SDS_P1;SDS_P2;PMS_P1;PMS_P2;Temp;Humidity;BMP_temperature;BMP_pressure;BME280_temperature;BME280_humidity;BME280_pressure;Samples;Min_cycle;Max_cycle;Signal;HPM_P1;HPM_P2
2021/09/16 00:01:07;;;;;;;7.47;4.63;;;16.40;99.90;;;;;;5104645;27;20193;-56
2021/09/16 00:03:34;;;;;;;7.00;3.60;;;16.40;99.90;;;;;;5113115;27;20663;-58
2021/09/16 00:06:01;;;;;;;7.30;3.57;;;16.40;99.90;;;;;;5109343;27;20232;-56
2021/09/16 00:08:27;;;;;;;10.00;3.87;;;16.50;99.90;;;;;;5109176;27;20212;-58
2021/09/16 00:10:54;;;;;;;7.30;3.57;;;16.50;99.90;;;;;;5123022;27;20574;-53
2021/09/16 00:13:20;;;;;;;10.40;4.50;;;16.50;99.90;;;;;;5125675;27;20208;-53
2021/09/16 00:15:47;;;;;;;7.10;3.87;;;16.50;99.90;;;;;;5124657;27;20217;-53
2021/09/16 00:18:15;;;;;;;8.17;4.00;;;16.40;99.90;;;;;;5115597;27;20934;-51
2021/09/16 00:20:42;;;;;;;6.83;3.97;;;16.40;99.90;;;;;;5106678;27;20200;-56
2021/09/16 00:23:09;;;;;;;9.30;3.93;;;16.50;99.90;;;;;;5103463;27;20198;-52
2021/09/16 00:25:36;;;;;;;10.93;3.93;;;16.30;99.90;;;;;;5105462;27;20217;-54
2021/09/16 00:28:02;;;;;;;13.00;4.23;;;16.40;99.90;;;;;;5102555;27;20208;-52
2021/09/16 00:30:29;;;;;;;8.23;3.90;;;16.50;99.90;;;;;;5108992;27;20197;-52
2021/09/16 00:32:55;;;;;;;9.23;3.97;;;16.30;99.90;;;;;;5109477;27;20197;-57
2021/09/16 00:35:24;;;;;;;5.53;3.80;;;16.40;99.90;;;;;;5125529;27;20228;-50
2021/09/16 00:37:51;;;;;;;11.33;4.57;;;16.40;99.90;;;;;;5122990;27;20192;-55
2021/09/16 00:40:17;;;;;;;11.47;5.10;;;16.30;99.90;;;;;;5119373;27;20200;-51
2021/09/16 00:42:45;;;;;;;6.33;4.00;;;16.50;99.90;;;;;;5115847;27;20204;-54
2021/09/16 00:45:13;;;;;;;5.07;4.07;;;16.40;99.90;;;;;;5112843;27;20196;-49
2021/09/16 00:47:44;;;;;;;8.60;4.33;;;16.40;99.90;;;;;;5112558;27;20555;-56
2021/09/16 00:50:12;;;;;;;8.23;4.87;;;16.40;99.90;;;;;;5103276;28;20185;-51
2021/09/16 00:52:41;;;;;;;8.23;4.53;;;16.60;99.90;;;;;;5105328;27;20205;-54
2021/09/16 00:55:11;;;;;;;11.73;4.80;;;16.50;99.90;;;;;;5101297;27;20227;-56
2021/09/16 00:57:39;;;;;;;10.67;4.80;;;16.40;99.90;;;;;;5112708;27;20212;-56
2021/09/16 01:00:09;;;;;;;5.97;4.10;;;16.60;99.90;;;;;;5106860;27;20204;-50
2021/09/16 01:02:36;;;;;;;11.23;4.17;;;16.50;99.90;;;;;;5108810;27;20197;-55
2021/09/16 01:05:03;;;;;;;7.23;4.40;;;16.40;99.90;;;;;;5110447;27;20946;-51
2021/09/16 01:07:30;;;;;;;8.37;4.63;;;16.40;99.90;;;;;;5125179;27;20231;-52
2021/09/16 01:09:59;;;;;;;9.33;4.20;;;16.30;99.90;;;;;;5121123;27;20275;-55
2021/09/16 01:12:26;;;;;;;7.57;4.30;;;16.30;99.90;;;;;;5118868;27;20212;-54
2021/09/16 01:14:52;;;;;;;8.20;4.27;;;16.40;99.90;;;;;;5108812;27;20229;-54
2021/09/16 01:17:19;;;;;;;9.13;4.40;;;16.50;99.90;;;;;;5116920;27;20228;-50
2021/09/16 01:19:46;;;;;;;6.93;4.17;;;16.40;99.90;;;;;;5109877;27;20209;-57
2021/09/16 01:22:18;;;;;;;8.67;4.40;;;16.50;99.90;;;;;;5111320;27;20219;-56
2021/09/16 01:24:47;;;;;;;9.13;4.60;;;16.30;99.90;;;;;;5122284;27;20573;-52
2021/09/16 01:27:14;;;;;;;4.53;4.07;;;16.30;99.90;;;;;;5107886;27;20220;-56
2021/09/16 01:29:40;;;;;;;8.97;4.63;;;16.40;99.90;;;;;;5105305;27;20211;-53
2021/09/16 01:32:08;;;;;;;9.30;4.57;;;16.30;99.90;;;;;;5118036;27;20200;-56
2021/09/16 01:34:35;;;;;;;6.60;4.20;;;16.40;99.90;;;;;;5099470;27;20290;-51
2021/09/16 01:37:02;;;;;;;8.67;4.70;;;16.40;99.90;;;;;;5111552;27;20575;-58
2021/09/16 01:39:28;;;;;;;7.20;4.87;;;16.20;99.90;;;;;;5101953;27;20788;-54
2021/09/16 01:41:56;;;;;;;9.60;4.80;;;16.40;99.90;;;;;;5108469;27;20216;-55
2021/09/16 01:44:23;;;;;;;5.43;4.03;;;16.30;99.90;;;;;;5098634;27;20201;-57
2021/09/16 01:46:49;;;;;;;8.10;4.73;;;16.30;99.90;;;;;;5114855;27;20232;-49
2021/09/16 01:49:16;;;;;;;9.10;4.30;;;16.30;99.90;;;;;;5109264;27;20204;-58
2021/09/16 01:51:43;;;;;;;9.87;4.63;;;16.20;99.90;;;;;;5104222;27;20212;-51
2021/09/16 01:54:09;;;;;;;10.93;5.07;;;16.20;99.90;;;;;;5103467;27;20209;-56
2021/09/16 01:56:36;;;;;;;6.97;4.20;;;16.30;99.90;;;;;;5108638;28;20220;-52
2021/09/16 01:59:04;;;;;;;5.63;3.80;;;16.40;99.90;;;;;;5110093;27;20208;-55
2021/09/16 02:01:31;;;;;;;5.97;3.93;;;16.20;99.90;;;;;;5102949;27;20233;-49
2021/09/16 02:03:57;;;;;;;9.70;4.40;;;16.10;99.90;;;;;;5115024;27;20204;-51
2021/09/16 02:06:24;;;;;;;7.00;4.20;;;16.10;99.90;;;;;;5096952;27;20733;-56
2021/09/16 02:08:51;;;;;;;7.83;4.07;;;16.10;99.90;;;;;;5104394;28;20489;-50
2021/09/16 02:11:17;;;;;;;6.00;3.20;;;16.10;99.90;;;;;;5101838;28;20197;-56
2021/09/16 02:13:44;;;;;;;6.87;3.70;;;16.10;99.90;;;;;;5105599;27;20193;-52
2021/09/16 02:16:12;;;;;;;6.03;3.73;;;16.10;99.90;;;;;;5100300;27;20216;-57
2021/09/16 02:18:38;;;;;;;5.10;3.37;;;16.10;99.90;;;;;;5107475;27;20193;-51
2021/09/16 02:21:05;;;;;;;10.77;3.80;;;15.90;99.90;;;;;;5104960;28;20563;-56
2021/09/16 02:23:32;;;;;;;6.07;3.43;;;16.10;99.90;;;;;;5108009;27;20192;-54
2021/09/16 02:25:59;;;;;;;5.63;2.80;;;16.00;99.90;;;;;;5123803;27;20213;-54
2021/09/16 02:28:25;;;;;;;6.30;2.70;;;16.00;99.90;;;;;;5119339;27;20200;-52
2021/09/16 02:30:52;;;;;;;3.97;2.80;;;15.90;99.90;;;;;;5111864;27;20205;-55
2021/09/16 02:33:20;;;;;;;4.33;2.77;;;16.00;99.90;;;;;;5112890;27;20209;-52
2021/09/16 02:35:51;;;;;;;2.37;2.17;;;16.00;99.90;;;;;;5119917;28;20236;-53
2021/09/16 02:38:19;;;;;;;4.57;1.90;;;15.90;99.90;;;;;;5113377;27;20208;-55
2021/09/16 02:40:45;;;;;;;4.40;1.80;;;15.80;99.90;;;;;;5129518;27;20188;-57
2021/09/16 02:43:12;;;;;;;3.23;1.80;;;15.80;99.90;;;;;;5128987;27;20200;-55
2021/09/16 02:45:39;;;;;;;3.43;1.70;;;15.50;99.90;;;;;;5111277;27;20216;-48
2021/09/16 02:48:06;;;;;;;3.20;1.40;;;15.90;99.90;;;;;;5106839;27;21443;-57
2021/09/16 02:50:34;;;;;;;1.50;1.30;;;15.80;99.90;;;;;;5107606;27;20196;-54
2021/09/16 02:53:00;;;;;;;2.97;1.63;;;15.70;99.90;;;;;;5104924;28;20685;-52
2021/09/16 02:55:27;;;;;;;5.13;1.33;;;15.50;99.90;;;;;;5119279;27;20211;-49
2021/09/16 02:57:54;;;;;;;4.00;1.40;;;16.00;99.90;;;;;;5128037;27;20662;-56
2021/09/16 03:00:20;;;;;;;1.63;1.13;;;15.70;99.90;;;;;;5122869;27;20205;-57
2021/09/16 03:02:47;;;;;;;2.20;0.97;;;15.60;99.90;;;;;;5107293;27;20213;-52
2021/09/16 03:05:15;;;;;;;5.20;1.10;;;;;;;;;;5106769;27;20211;-57
2021/09/16 03:07:44;;;;;;;4.57;1.23;;;;;;;;;;5113994;27;21325;-51
2021/09/16 03:10:14;;;;;;;3.13;0.90;;;;;;;;;;5107920;27;20197;-56
2021/09/16 03:12:41;;;;;;;2.77;1.17;;;15.50;99.90;;;;;;5105888;27;20194;-53
2021/09/16 03:15:09;;;;;;;3.67;1.23;;;15.50;99.90;;;;;;5106792;27;20217;-57
2021/09/16 03:17:35;;;;;;;4.47;1.30;;;15.50;99.90;;;;;;5106201;27;20197;-51
2021/09/16 03:20:03;;;;;;;5.90;1.00;;;15.50;99.90;;;;;;5110787;27;20211;-52
2021/09/16 03:22:30;;;;;;;3.53;1.00;;;15.50;99.90;;;;;;5109995;27;20209;-53
2021/09/16 03:24:58;;;;;;;1.57;0.80;;;15.50;99.90;;;;;;5114555;27;20206;-50
2021/09/16 03:27:24;;;;;;;2.70;0.93;;;15.50;99.90;;;;;;5122855;27;20220;-54
2021/09/16 03:29:51;;;;;;;1.60;0.80;;;15.50;99.90;;;;;;5126751;27;20550;-51
2021/09/16 03:32:17;;;;;;;3.23;1.43;;;15.50;99.90;;;;;;5115286;27;20203;-57
2021/09/16 03:34:44;;;;;;;3.37;0.87;;;15.50;99.90;;;;;;5116454;27;20232;-55
2021/09/16 03:37:11;;;;;;;3.27;0.90;;;15.50;99.90;;;;;;5118291;27;20562;-53
2021/09/16 03:39:37;;;;;;;5.30;1.10;;;15.40;99.90;;;;;;5113929;27;20211;-52
2021/09/16 03:42:06;;;;;;;2.00;0.70;;;15.40;99.90;;;;;;5124026;27;20196;-52
2021/09/16 03:44:32;;;;;;;6.27;1.27;;;15.40;99.90;;;;;;5123476;27;20864;-52
2021/09/16 03:46:59;;;;;;;5.80;1.37;;;15.40;99.90;;;;;;5120075;27;20217;-53
2021/09/16 03:49:25;;;;;;;2.70;0.90;;;15.40;99.90;;;;;;5101982;27;20205;-48
2021/09/16 03:51:52;;;;;;;3.60;0.80;;;15.40;99.90;;;;;;5110264;27;20204;-56
2021/09/16 03:54:19;;;;;;;2.00;0.70;;;15.40;99.90;;;;;;5113299;27;20677;-55
2021/09/16 03:56:45;;;;;;;3.87;1.10;;;15.30;99.90;;;;;;5104820;27;20217;-57
2021/09/16 03:59:13;;;;;;;3.83;1.00;;;15.30;99.90;;;;;;5112546;27;20212;-51
2021/09/16 04:01:40;;;;;;;3.63;0.83;;;15.30;99.90;;;;;;5111769;27;20189;-55
2021/09/16 04:04:06;;;;;;;2.87;0.77;;;15.30;99.90;;;;;;5112519;27;20212;-52
2021/09/16 04:06:33;;;;;;;2.23;1.03;;;15.30;99.90;;;;;;5114912;27;20894;-51
2021/09/16 04:08:59;;;;;;;4.27;0.73;;;15.30;99.90;;;;;;5119401;27;20209;-55
2021/09/16 04:11:26;;;;;;;3.97;1.10;;;15.30;99.90;;;;;;5111503;27;20197;-52
2021/09/16 04:13:53;;;;;;;2.53;0.70;;;15.30;99.90;;;;;;5109961;28;20205;-54
2021/09/16 04:16:21;;;;;;;3.50;0.67;;;15.30;99.90;;;;;;5112708;27;20600;-56
2021/09/16 04:18:47;;;;;;;3.83;0.97;;;15.30;99.90;;;;;;5100259;27;20207;-51
2021/09/16 04:21:14;;;;;;;4.40;1.00;;;15.30;99.90;;;;;;5110621;27;20587;-56
2021/09/16 04:23:40;;;;;;;4.43;0.90;;;15.30;99.90;;;;;;5116543;27;20205;-53
2021/09/16 04:26:07;;;;;;;5.03;1.27;;;15.20;99.90;;;;;;5114652;27;20224;-51
2021/09/16 04:28:34;;;;;;;5.63;1.57;;;15.20;99.90;;;;;;5111143;28;20897;-56
2021/09/16 04:31:00;;;;;;;2.17;0.77;;;15.20;99.90;;;;;;5112404;28;20197;-56
2021/09/16 04:33:28;;;;;;;8.77;2.20;;;15.10;99.90;;;;;;5100309;27;20201;-57
2021/09/16 04:35:55;;;;;;;2.80;1.00;;;15.20;99.90;;;;;;5121836;27;20228;-58
2021/09/16 04:38:22;;;;;;;2.43;1.03;;;15.10;99.90;;;;;;5119979;27;20207;-53
2021/09/16 04:40:48;;;;;;;3.17;1.30;;;15.00;99.90;;;;;;5112015;27;20197;-53
2021/09/16 04:43:15;;;;;;;3.57;0.97;;;15.00;99.90;;;;;;5111192;27;20208;-55
2021/09/16 04:45:42;;;;;;;2.17;0.93;;;15.00;99.90;;;;;;5119408;27;20209;-51
2021/09/16 04:48:08;;;;;;;1.33;1.00;;;15.00;99.90;;;;;;5114347;27;20196;-56
2021/09/16 04:50:36;;;;;;;4.90;1.07;;;15.00;99.90;;;;;;5101730;27;20207;-51
2021/09/16 04:53:03;;;;;;;4.43;0.90;;;15.00;99.90;;;;;;5106975;27;20224;-54
2021/09/16 04:55:30;;;;;;;6.90;1.67;;;15.00;99.90;;;;;;5112649;27;20958;-56
2021/09/16 04:57:56;;;;;;;5.03;1.00;;;15.00;99.90;;;;;;5106578;27;20220;-56
2021/09/16 05:00:23;;;;;;;4.03;1.10;;;15.00;99.90;;;;;;5101418;27;20216;-56
2021/09/16 05:02:50;;;;;;;5.87;1.63;;;15.00;99.90;;;;;;5105390;27;20204;-56
2021/09/16 05:05:17;;;;;;;5.33;1.40;;;15.00;99.90;;;;;;5096622;27;20193;-58
2021/09/16 05:07:45;;;;;;;2.10;1.20;;;15.00;99.90;;;;;;5105891;27;24152;-50
2021/09/16 05:10:11;;;;;;;5.00;1.43;;;14.90;99.90;;;;;;5094626;27;20224;-54
2021/09/16 05:12:38;;;;;;;4.07;1.00;;;14.90;99.90;;;;;;5108946;27;20204;-57
2021/09/16 05:15:05;;;;;;;1.77;0.90;;;14.90;99.90;;;;;;5112564;27;20197;-53
2021/09/16 05:17:32;;;;;;;5.60;1.97;;;15.00;99.90;;;;;;5107760;27;20224;-55
2021/09/16 05:19:59;;;;;;;3.03;1.20;;;14.90;99.90;;;;;;5109493;27;20332;-53
2021/09/16 05:22:26;;;;;;;5.70;1.80;;;14.90;99.90;;;;;;5106516;27;20224;-57
2021/09/16 05:24:54;;;;;;;5.47;1.60;;;14.90;99.90;;;;;;5104255;27;20258;-51
2021/09/16 05:27:21;;;;;;;4.20;1.47;;;14.90;99.90;;;;;;5112117;27;20220;-55
2021/09/16 05:29:47;;;;;;;6.00;1.80;;;14.90;99.90;;;;;;5106744;27;20193;-53
2021/09/16 05:32:14;;;;;;;2.97;1.90;;;14.90;99.90;;;;;;5115768;27;20197;-50
2021/09/16 05:34:41;;;;;;;3.10;1.77;;;14.90;99.90;;;;;;5116084;27;20198;-55
2021/09/16 05:37:07;;;;;;;4.37;2.10;;;14.90;99.90;;;;;;5113895;27;20219;-55
2021/09/16 05:39:34;;;;;;;5.77;2.10;;;14.90;99.90;;;;;;5113714;27;20205;-56
2021/09/16 05:42:02;;;;;;;3.37;2.10;;;14.90;99.90;;;;;;5106517;27;20764;-51
2021/09/16 05:44:28;;;;;;;7.53;3.30;;;14.90;99.90;;;;;;5111457;27;20204;-54
2021/09/16 05:46:55;;;;;;;5.93;4.97;;;14.80;99.90;;;;;;5108118;27;20958;-56
2021/09/16 05:49:22;;;;;;;5.23;2.73;;;14.80;99.90;;;;;;5104608;27;20201;-50
2021/09/16 05:51:49;;;;;;;4.17;2.00;;;14.80;99.90;;;;;;5093729;27;20203;-55
2021/09/16 05:54:15;;;;;;;5.73;2.40;;;14.80;99.90;;;;;;5108304;27;20204;-54
2021/09/16 05:56:42;;;;;;;4.97;2.30;;;14.90;99.90;;;;;;5101849;27;20897;-56
2021/09/16 05:59:10;;;;;;;5.50;2.23;;;14.90;99.90;;;;;;5108731;27;20208;-58
2021/09/16 06:01:36;;;;;;;8.20;3.57;;;14.90;99.90;;;;;;5108582;27;20201;-54
2021/09/16 06:04:03;;;;;;;6.43;3.77;;;14.90;99.90;;;;;;5119781;27;20596;-51
2021/09/16 06:06:30;;;;;;;4.63;3.50;;;14.90;99.90;;;;;;5106902;27;20724;-56
2021/09/16 06:08:56;;;;;;;5.97;2.90;;;14.90;99.90;;;;;;5102460;27;21057;-50
2021/09/16 06:11:23;;;;;;;12.67;3.70;;;14.90;99.90;;;;;;5118950;27;20200;-55
2021/09/16 06:13:49;;;;;;;6.80;2.93;;;14.90;99.90;;;;;;5099874;27;20197;-53
2021/09/16 06:16:17;;;;;;;7.53;3.10;;;14.90;99.90;;;;;;5110453;27;20228;-50
2021/09/16 06:18:44;;;;;;;9.73;3.60;;;14.90;99.90;;;;;;5105685;27;20193;-51
2021/09/16 06:21:11;;;;;;;5.03;2.80;;;14.90;99.90;;;;;;5108641;28;20193;-51
2021/09/16 06:23:37;;;;;;;5.67;3.30;;;15.00;99.90;;;;;;5103581;27;20212;-57
2021/09/16 06:26:04;;;;;;;4.33;3.23;;;15.00;99.90;;;;;;5106895;27;20240;-51
2021/09/16 06:28:30;;;;;;;7.23;3.33;;;15.00;99.90;;;;;;5104928;27;20212;-58
2021/09/16 06:30:57;;;;;;;7.67;3.77;;;15.00;99.90;;;;;;5101834;27;20200;-48
2021/09/16 06:33:25;;;;;;;6.90;3.97;;;15.10;99.90;;;;;;5109318;27;20208;-57
2021/09/16 06:35:52;;;;;;;4.50;2.93;;;15.10;99.90;;;;;;5110621;27;20910;-52
2021/09/16 06:38:18;;;;;;;6.27;3.10;;;15.10;99.90;;;;;;5113712;27;20694;-52
2021/09/16 06:40:45;;;;;;;4.20;3.23;;;15.10;99.90;;;;;;5099241;27;21047;-55
2021/09/16 06:43:12;;;;;;;10.17;3.50;;;15.10;99.90;;;;;;5110690;27;20231;-53
2021/09/16 06:45:38;;;;;;;6.80;3.63;;;15.10;99.90;;;;;;5104521;27;20220;-55
2021/09/16 06:48:05;;;;;;;5.00;3.40;;;15.10;99.90;;;;;;5119935;27;20197;-52
2021/09/16 06:50:33;;;;;;;5.13;3.20;;;15.10;99.90;;;;;;5120065;27;20203;-55
2021/09/16 06:53:00;;;;;;;6.77;3.10;;;15.20;99.90;;;;;;5120064;27;20231;-52
2021/09/16 06:55:26;;;;;;;5.53;3.20;;;15.20;99.90;;;;;;5107298;27;20205;-58
2021/09/16 06:57:53;;;;;;;6.67;3.77;;;15.20;99.90;;;;;;5105352;27;20910;-52
2021/09/16 07:00:20;;;;;;;7.83;3.30;;;15.20;99.90;;;;;;5111099;27;20216;-55
2021/09/16 07:02:49;;;;;;;4.47;3.83;;;15.20;99.90;;;;;;5106721;27;20793;-56
2021/09/16 07:05:16;;;;;;;13.47;4.13;;;15.20;99.90;;;;;;5107963;27;20202;-55
2021/09/16 07:07:44;;;;;;;6.37;4.00;;;15.20;99.90;;;;;;5116066;27;20817;-56
2021/09/16 07:10:11;;;;;;;5.00;3.87;;;15.30;99.90;;;;;;5115614;27;20216;-56
2021/09/16 07:12:38;;;;;;;6.60;3.90;;;15.30;99.90;;;;;;5100559;27;20205;-57
2021/09/16 07:15:06;;;;;;;6.60;4.03;;;15.30;99.90;;;;;;5111995;27;20659;-53
2021/09/16 07:17:33;;;;;;;7.30;4.53;;;15.30;99.90;;;;;;5113591;27;20213;-58
2021/09/16 07:19:59;;;;;;;8.60;6.30;;;15.40;99.90;;;;;;5118775;27;20208;-53
2021/09/16 07:22:26;;;;;;;5.53;5.00;;;15.40;99.90;;;;;;5114688;27;20207;-57
2021/09/16 07:24:54;;;;;;;5.80;4.27;;;15.40;99.90;;;;;;5114082;27;20204;-54
2021/09/16 07:27:20;;;;;;;7.90;4.83;;;15.40;99.90;;;;;;5104024;27;20224;-57
2021/09/16 07:29:47;;;;;;;9.27;5.13;;;15.40;99.90;;;;;;5113579;27;20185;-57
2021/09/16 07:32:14;;;;;;;7.83;5.23;;;15.40;99.90;;;;;;5116003;27;20203;-55
2021/09/16 07:34:40;;;;;;;8.47;4.23;;;15.50;99.90;;;;;;5111433;27;20185;-57
2021/09/16 07:37:07;;;;;;;7.23;4.67;;;15.50;99.90;;;;;;5111517;27;20725;-53
2021/09/16 07:39:34;;;;;;;8.03;4.93;;;15.50;99.90;;;;;;5113575;27;20201;-57
2021/09/16 07:42:04;;;;;;;7.37;4.40;;;15.50;99.90;;;;;;5107546;27;20196;-54
2021/09/16 07:44:30;;;;;;;8.70;5.63;;;15.40;99.90;;;;;;5096197;27;20201;-52
2021/09/16 07:46:57;;;;;;;7.87;5.07;;;15.50;99.90;;;;;;5118250;27;20213;-53
2021/09/16 07:49:24;;;;;;;11.80;5.37;;;15.40;99.90;;;;;;5095423;27;20215;-54
2021/09/16 07:51:50;;;;;;;8.93;6.03;;;15.40;99.90;;;;;;5107288;27;20953;-55
2021/09/16 07:54:17;;;;;;;7.70;5.73;;;15.40;99.90;;;;;;5106667;27;22470;-55
2021/09/16 07:56:43;;;;;;;7.83;5.43;;;15.40;99.90;;;;;;5114245;27;20216;-58
2021/09/16 07:59:11;;;;;;;7.57;4.53;;;15.40;99.90;;;;;;5095906;27;20205;-53
2021/09/16 08:01:38;;;;;;;6.50;4.77;;;15.40;99.90;;;;;;5115945;27;20559;-56
2021/09/16 08:04:05;;;;;;;8.90;4.70;;;15.40;99.90;;;;;;5096443;27;20200;-57
2021/09/16 08:06:32;;;;;;;7.03;5.50;;;15.50;99.90;;;;;;5118023;27;20220;-57
2021/09/16 08:08:59;;;;;;;8.83;4.90;;;15.50;99.90;;;;;;5113289;27;20189;-57
2021/09/16 08:11:25;;;;;;;6.23;4.83;;;15.60;99.90;;;;;;5109101;27;20734;-53
2021/09/16 08:13:53;;;;;;;10.93;4.53;;;15.60;99.90;;;;;;5106746;27;20214;-57
2021/09/16 08:16:21;;;;;;;7.93;4.47;;;15.60;99.90;;;;;;5112681;27;20201;-56
2021/09/16 08:18:48;;;;;;;4.63;3.40;;;15.70;99.90;;;;;;5111101;27;20207;-57
2021/09/16 08:21:16;;;;;;;7.57;4.10;;;15.70;99.90;;;;;;5113376;27;20188;-55
2021/09/16 08:23:44;;;;;;;4.20;3.40;;;15.80;99.90;;;;;;5108828;27;20212;-58
2021/09/16 08:26:11;;;;;;;6.27;3.73;;;15.80;99.90;;;;;;5106942;27;20920;-51
2021/09/16 08:28:37;;;;;;;6.63;3.30;;;15.80;99.90;;;;;;5113816;27;20193;-51
2021/09/16 08:31:05;;;;;;;8.30;3.70;;;15.80;99.90;;;;;;5093943;27;20209;-48
2021/09/16 08:33:33;;;;;;;3.77;3.33;;;15.80;99.90;;;;;;5112628;27;20220;-56
2021/09/16 08:36:00;;;;;;;5.37;3.40;;;15.90;99.90;;;;;;5110603;27;20950;-53
2021/09/16 08:38:27;;;;;;;9.23;4.43;;;15.90;99.90;;;;;;5099515;27;20193;-55
2021/09/16 08:40:53;;;;;;;8.97;4.03;;;15.90;99.90;;;;;;5109389;27;20666;-52
2021/09/16 08:43:21;;;;;;;9.63;5.03;;;16.00;99.90;;;;;;5116162;27;20774;-55
2021/09/16 08:45:48;;;;;;;7.90;4.33;;;16.00;99.90;;;;;;5103857;27;20225;-56
2021/09/16 08:48:15;;;;;;;4.87;4.40;;;16.00;99.90;;;;;;5114044;27;20788;-55
2021/09/16 08:50:43;;;;;;;5.00;3.83;;;16.10;99.90;;;;;;5112850;27;20915;-51
2021/09/16 08:53:12;;;;;;;9.60;5.17;;;16.20;99.90;;;;;;5113869;27;20204;-56
2021/09/16 08:55:39;;;;;;;7.23;4.87;;;16.20;99.90;;;;;;5108593;27;20217;-56
2021/09/16 08:58:09;;;;;;;9.00;6.20;;;16.30;99.90;;;;;;5111974;27;20224;-53
2021/09/16 09:00:36;;;;;;;5.87;4.30;;;16.30;99.90;;;;;;5106282;27;20240;-59
2021/09/16 09:03:04;;;;;;;3.67;2.93;;;16.40;99.90;;;;;;5113804;27;20197;-53
2021/09/16 09:05:31;;;;;;;4.83;4.23;;;16.40;99.90;;;;;;5111567;27;20204;-57
2021/09/16 09:08:01;;;;;;;4.23;3.37;;;16.50;99.90;;;;;;5102136;27;20192;-50
2021/09/16 09:10:39;;;;;;;4.47;3.40;;;16.60;99.90;;;;;;5111253;27;20658;-57
2021/09/16 09:13:08;;;;;;;7.97;4.73;;;16.60;99.90;;;;;;5104697;27;20812;-49
2021/09/16 09:15:38;;;;;;;3.63;3.13;;;16.70;99.90;;;;;;5111256;27;20208;-59
2021/09/16 09:18:07;;;;;;;4.87;3.33;;;16.70;99.90;;;;;;5109881;27;20213;-52
2021/09/16 09:20:35;;;;;;;4.77;2.87;;;16.80;99.90;;;;;;5116880;27;20200;-56
2021/09/16 09:23:22;;;;;;;3.87;2.57;;;16.80;99.90;;;;;;5106642;27;20193;-52
2021/09/16 09:25:57;;;;;;;3.40;1.97;;;16.90;99.90;;;;;;5086980;27;20618;-48
2021/09/16 09:28:33;;;;;;;3.37;1.87;;;16.90;99.90;;;;;;5081875;28;20209;-54
2021/09/16 09:31:12;;;;;;;3.83;2.00;;;17.00;99.90;;;;;;5086355;28;20208;-49
2021/09/16 09:33:39;;;;;;;3.10;1.67;;;17.00;99.90;;;;;;5071936;28;20186;-52
2021/09/16 09:36:08;;;;;;;1.77;1.50;;;17.10;99.90;;;;;;5091796;28;20218;-55
2021/09/16 09:38:54;;;;;;;3.50;1.50;;;17.10;99.90;;;;;;5073384;28;20868;-50
2021/09/16 09:41:40;;;;;;;3.93;2.47;;;17.20;99.90;;;;;;5064487;28;20206;-56
2021/09/16 09:44:11;;;;;;;4.00;1.73;;;17.20;99.90;;;;;;5088669;28;20228;-52
2021/09/16 09:46:45;;;;;;;6.80;2.17;;;17.30;99.90;;;;;;5075604;28;20228;-57
2021/09/16 09:49:16;;;;;;;6.13;2.03;;;17.30;99.90;;;;;;5069424;28;20700;-50
2021/09/16 09:51:45;;;;;;;3.33;1.93;;;17.70;99.90;;;;;;5085358;28;20190;-56
2021/09/16 09:54:21;;;;;;;2.80;1.80;;;17.40;99.90;;;;;;5086754;28;20205;-56
2021/09/16 09:57:10;;;;;;;7.03;1.67;;;17.50;99.90;;;;;;5070203;28;20229;-50
2021/09/16 09:59:51;;;;;;;2.80;1.70;;;17.50;99.90;;;;;;5076875;28;20190;-49
2021/09/16 10:02:19;;;;;;;4.27;1.70;;;17.60;99.90;;;;;;5076033;28;20213;-54
2021/09/16 10:04:46;;;;;;;1.73;1.57;;;17.70;99.90;;;;;;5081967;28;20388;-51
2021/09/16 10:07:36;;;;;;;4.80;1.57;;;17.80;99.90;;;;;;5087349;28;20225;-52
2021/09/16 10:10:07;;;;;;;3.53;1.60;;;17.80;99.90;;;;;;5077852;28;20195;-53
2021/09/16 10:12:36;;;;;;;4.43;1.57;;;17.80;99.90;;;;;;5067839;28;20198;-52
2021/09/16 10:15:04;;;;;;;2.50;1.90;;;17.80;99.90;;;;;;5086375;28;20197;-55
2021/09/16 10:17:31;;;;;;;4.73;2.00;;;17.90;99.90;;;;;;5077807;28;20210;-55
2021/09/16 10:19:58;;;;;;;4.90;1.63;;;17.90;99.90;;;;;;5064896;28;20225;-51
2021/09/16 10:22:25;;;;;;;5.80;1.53;;;17.80;99.90;;;;;;5072370;28;20694;-57
2021/09/16 10:24:53;;;;;;;8.07;1.60;;;17.80;99.90;;;;;;5085907;28;20236;-54
2021/09/16 10:27:31;;;;;;;3.63;1.97;;;17.80;99.90;;;;;;5072609;28;20221;-57
2021/09/16 10:30:00;;;;;;;2.87;1.80;;;17.70;99.90;;;;;;5085375;28;20543;-50
2021/09/16 10:32:37;;;;;;;2.97;1.40;;;17.70;99.90;;;;;;5082956;28;20186;-53
2021/09/16 10:35:20;;;;;;;1.73;1.10;;;17.70;99.90;;;;;;5068040;28;20283;-50
2021/09/16 10:37:47;;;;;;;6.03;1.83;;;17.80;99.90;;;;;;5072121;28;20251;-52
2021/09/16 10:40:23;;;;;;;8.63;1.90;;;17.70;99.90;;;;;;5066992;28;20308;-57
2021/09/16 10:42:52;;;;;;;3.03;1.90;;;17.80;99.90;;;;;;5056842;28;20209;-52
2021/09/16 10:45:29;;;;;;;4.07;1.70;;;17.80;99.90;;;;;;5065128;28;20235;-55
2021/09/16 10:48:26;;;;;;;5.10;1.93;;;17.80;99.90;;;;;;5071066;28;20198;-53
2021/09/16 10:50:55;;;;;;;4.67;1.80;;;17.80;99.90;;;;;;5055978;28;20206;-52
2021/09/16 10:53:45;;;;;;;3.10;1.37;;;17.70;99.90;;;;;;5071849;28;20194;-57
2021/09/16 10:56:42;;;;;;;5.23;2.00;;;17.60;99.90;;;;;;5062808;28;20242;-56
2021/09/16 10:59:09;;;;;;;4.17;1.93;;;17.50;99.90;;;;;;5053485;28;20205;-57
2021/09/16 11:01:58;;;;;;;4.10;1.60;;;17.60;99.90;;;;;;5064751;28;20722;-55
2021/09/16 11:04:26;;;;;;;2.37;1.70;;;17.70;99.90;;;;;;5045447;28;20654;-58
2021/09/16 11:06:52;;;;;;;3.20;1.63;;;17.70;99.90;;;;;;5063460;28;20687;-51
2021/09/16 11:09:27;;;;;;;2.27;1.80;;;17.80;99.90;;;;;;5061202;28;20617;-56
2021/09/16 11:11:58;;;;;;;2.57;1.70;;;18.00;99.90;;;;;;5059814;28;20206;-56
2021/09/16 11:14:34;;;;;;;4.30;1.97;;;18.10;99.90;;;;;;5057329;28;20659;-57
2021/09/16 11:17:03;;;;;;;5.10;1.63;;;18.20;99.90;;;;;;5073917;28;20216;-55
2021/09/16 11:19:30;;;;;;;2.73;1.40;;;18.30;99.90;;;;;;5047511;28;20294;-53
2021/09/16 11:22:10;;;;;;;5.90;1.53;;;18.30;99.90;;;;;;5066925;28;20647;-52
2021/09/16 11:24:40;;;;;;;2.33;1.83;;;18.30;99.90;;;;;;5059825;28;20229;-54
2021/09/16 11:27:08;;;;;;;2.03;1.10;;;18.40;99.90;;;;;;5057087;28;20218;-56
2021/09/16 11:29:39;;;;;;;3.37;1.57;;;18.50;99.90;;;;;;5063784;28;23035;-54
2021/09/16 11:32:08;;;;;;;4.37;1.10;;;;;;;;;;5069357;28;20211;-57
2021/09/16 11:34:35;;;;;;;4.53;1.40;;;18.60;99.90;;;;;;5068033;28;20199;-57
2021/09/16 11:37:18;;;;;;;1.73;1.37;;;18.70;99.90;;;;;;5057175;28;20218;-58
2021/09/16 11:39:56;;;;;;;3.50;1.00;;;18.60;99.90;;;;;;5070571;28;20441;-59
2021/09/16 11:42:23;;;;;;;2.57;1.30;;;18.40;99.90;;;;;;5063809;28;20251;-57
2021/09/16 11:45:10;;;;;;;2.93;1.13;;;18.40;99.90;;;;;;5062886;28;20217;-55
2021/09/16 11:47:40;;;;;;;1.33;1.10;;;18.20;99.90;;;;;;5061271;28;20230;-57
2021/09/16 11:50:08;;;;;;;3.33;0.93;;;18.20;99.90;;;;;;5061319;28;20206;-57
2021/09/16 11:52:39;;;;;;;1.87;0.80;;;18.10;99.90;;;;;;5052255;28;20206;-54
2021/09/16 11:55:12;;;;;;;2.27;1.10;;;18.00;99.90;;;;;;5070701;28;20266;-52
2021/09/16 11:57:55;;;;;;;1.80;1.07;;;17.70;99.90;;;;;;5063128;28;20214;-54
2021/09/16 12:00:27;;;;;;;2.20;1.10;;;17.60;99.90;;;;;;5060978;28;20573;-56
2021/09/16 12:02:55;;;;;;;2.93;1.30;;;17.50;99.90;;;;;;5058192;28;20210;-55
2021/09/16 12:05:36;;;;;;;5.23;1.10;;;17.30;99.90;;;;;;5062170;28;20222;-55
2021/09/16 12:08:04;;;;;;;5.60;1.03;;;17.30;99.90;;;;;;5046641;28;20572;-54
2021/09/16 12:10:43;;;;;;;2.57;1.30;;;17.40;99.90;;;;;;5056836;28;20193;-55
2021/09/16 12:13:13;;;;;;;6.90;1.30;;;17.40;99.90;;;;;;5071858;28;20194;-52
2021/09/16 12:15:40;;;;;;;3.27;1.30;;;17.50;99.90;;;;;;5057231;28;20290;-54
2021/09/16 12:18:09;;;;;;;2.50;1.30;;;17.50;99.90;;;;;;5064602;28;20195;-54
2021/09/16 12:20:37;;;;;;;3.00;1.03;;;17.70;99.90;;;;;;5057717;28;20203;-58
2021/09/16 12:23:04;;;;;;;2.70;1.00;;;17.70;99.90;;;;;;5049762;28;20217;-59
2021/09/16 12:25:44;;;;;;;2.53;0.97;;;17.90;99.90;;;;;;5066119;28;20290;-56
2021/09/16 12:28:11;;;;;;;2.70;0.80;;;17.90;99.90;;;;;;5061665;28;20202;-53
2021/09/16 12:30:38;;;;;;;3.77;0.97;;;17.90;99.90;;;;;;5059117;28;20201;-52
2021/09/16 12:33:30;;;;;;;2.30;1.00;;;17.70;99.90;;;;;;5063714;28;20203;-57
2021/09/16 12:36:19;;;;;;;5.77;1.80;;;17.70;99.90;;;;;;5071614;28;20210;-57
2021/09/16 12:38:48;;;;;;;5.80;1.50;;;17.70;99.90;;;;;;5047270;28;23356;-51
2021/09/16 12:41:27;;;;;;;3.47;1.10;;;17.70;99.90;;;;;;5072875;28;20529;-57
2021/09/16 12:43:58;;;;;;;2.80;1.10;;;17.70;99.90;;;;;;5070923;28;20199;-51
2021/09/16 12:46:25;;;;;;;3.97;0.90;;;17.70;99.90;;;;;;5056778;28;20227;-57
2021/09/16 12:48:53;;;;;;;5.50;1.27;;;17.70;99.90;;;;;;5062876;28;20230;-56
2021/09/16 12:51:21;;;;;;;3.57;1.33;;;17.70;99.90;;;;;;5064034;28;20213;-57
2021/09/16 12:53:50;;;;;;;2.13;1.20;;;17.70;99.90;;;;;;5064987;28;20195;-56
2021/09/16 12:56:17;;;;;;;3.87;1.10;;;17.80;99.90;;;;;;5047668;28;20567;-57